createdAt,value
2022-11-18T00:03:37.878Z,7.00
2022-11-18T00:07:40.913Z,7.00
2022-11-18T00:11:53.644Z,7.10
2022-11-18T00:16:03.046Z,7.00
2022-11-18T00:20:03.110Z,7.00
2022-11-18T00:24:06.069Z,7.00
2022-11-18T00:28:06.644Z,7.00
2022-11-18T00:32:07.059Z,6.90
2022-11-18T00:36:09.893Z,6.90
2022-11-18T00:40:14.761Z,6.90
2022-11-18T00:44:15.102Z,6.90
2022-11-18T00:48:21.574Z,6.90
2022-11-18T00:52:21.697Z,6.90
2022-11-18T00:56:24.420Z,6.90
2022-11-18T01:00:24.737Z,6.90
2022-11-18T01:04:25.125Z,6.90
2022-11-18T01:08:26.090Z,7.00
2022-11-18T01:12:41.292Z,7.00
2022-11-18T01:16:41.368Z,7.00
2022-11-18T01:20:41.861Z,7.00
2022-11-18T01:24:41.946Z,7.10
2022-11-18T01:28:45.321Z,7.10
2022-11-18T01:32:45.393Z,7.00
2022-11-18T01:36:45.658Z,7.00
2022-11-18T01:40:45.818Z,7.00
2022-11-18T01:45:22.879Z,7.00
2022-11-18T01:49:23.423Z,7.00
2022-11-18T01:53:28.521Z,7.00
2022-11-18T01:57:32.542Z,7.00
2022-11-18T02:01:35.674Z,7.00
2022-11-18T02:05:37.932Z,7.00
2022-11-18T02:09:39.852Z,7.00
2022-11-18T02:13:39.992Z,7.00
2022-11-18T02:17:57.912Z,7.00
2022-11-18T02:22:15.320Z,6.90
2022-11-18T02:27:17.589Z,7.00
2022-11-18T02:31:30.144Z,6.90
2022-11-18T02:35:36.275Z,7.00
2022-11-18T02:39:44.936Z,6.90
2022-11-18T02:43:51.377Z,7.00
2022-11-18T02:47:57.680Z,6.90
2022-11-18T02:52:00.265Z,6.90
2022-11-18T02:56:02.143Z,6.90
2022-11-18T03:00:02.583Z,6.90
2022-11-18T03:04:07.032Z,6.90
2022-11-18T03:08:16.986Z,6.90
2022-11-18T03:12:32.747Z,6.90
2022-11-18T03:16:39.648Z,6.90
2022-11-18T03:20:52.376Z,6.80
2022-11-18T03:25:04.687Z,6.80
2022-11-18T03:29:13.237Z,6.80
2022-11-18T03:33:20.289Z,6.80
2022-11-18T03:37:29.162Z,6.80
2022-11-18T03:41:33.044Z,6.80
2022-11-18T03:45:39.528Z,6.80
2022-11-18T03:49:48.169Z,6.80
2022-11-18T03:54:09.494Z,6.80
2022-11-18T03:58:20.195Z,6.80
2022-11-18T04:02:23.847Z,6.80
2022-11-18T04:06:44.856Z,6.80
2022-11-18T04:10:55.110Z,6.80
2022-11-18T04:14:57.126Z,6.70
2022-11-18T04:19:00.274Z,6.70
2022-11-18T04:23:04.773Z,6.70
2022-11-18T04:27:08.728Z,6.70
2022-11-18T04:31:09.024Z,6.70
2022-11-18T04:35:09.860Z,6.70
2022-11-18T04:39:10.160Z,6.70
2022-11-18T04:43:12.933Z,6.60
2022-11-18T04:47:14.015Z,6.50
2022-11-18T04:51:14.153Z,6.50
2022-11-18T04:55:14.272Z,6.50
2022-11-18T04:59:20.126Z,6.40
2022-11-18T05:03:20.643Z,6.50
2022-11-18T05:07:21.140Z,6.50
2022-11-18T05:11:33.832Z,6.50
2022-11-18T05:15:36.798Z,6.60
2022-11-18T05:19:37.257Z,6.60
2022-11-18T05:23:37.368Z,6.60
2022-11-18T05:27:37.629Z,6.60
2022-11-18T05:31:40.695Z,6.60
2022-11-18T05:35:41.169Z,6.60
2022-11-18T05:39:41.437Z,6.60
2022-11-18T05:43:41.586Z,6.60
2022-11-18T05:47:56.504Z,6.70
2022-11-18T05:51:56.572Z,6.60
2022-11-18T05:56:06.300Z,6.70
2022-11-18T06:00:07.594Z,6.60
2022-11-18T06:04:20.677Z,6.60
2022-11-18T06:08:22.835Z,6.60
2022-11-18T06:12:30.344Z,6.60
2022-11-18T06:16:40.569Z,6.60
2022-11-18T06:20:45.000Z,6.70
2022-11-18T06:24:46.491Z,6.70
2022-11-18T06:28:50.712Z,6.70
2022-11-18T06:32:50.910Z,6.70
2022-11-18T06:36:53.672Z,6.70
2022-11-18T06:40:53.939Z,6.70
2022-11-18T06:44:54.210Z,6.80
2022-11-18T06:48:55.106Z,6.80
2022-11-18T06:52:57.840Z,6.80
2022-11-18T06:56:58.099Z,6.80
2022-11-18T07:00:58.475Z,6.90
2022-11-18T07:04:58.671Z,6.90
2022-11-18T07:09:04.232Z,6.90
2022-11-18T07:13:04.640Z,7.00
2022-11-18T07:17:04.800Z,7.00
2022-11-18T07:21:06.509Z,6.90
2022-11-18T07:25:09.943Z,6.90
2022-11-18T07:29:10.826Z,7.00
2022-11-18T07:33:11.236Z,7.00
2022-11-18T07:37:11.382Z,7.00
2022-11-18T07:41:16.827Z,7.00
2022-11-18T07:45:17.363Z,7.10
2022-11-18T07:49:17.915Z,7.20
2022-11-18T07:53:18.252Z,7.20
2022-11-18T07:57:22.013Z,7.20
2022-11-18T08:01:25.318Z,7.10
2022-11-18T08:05:27.719Z,7.10
2022-11-18T08:09:28.515Z,7.20
2022-11-18T08:13:33.434Z,7.10
2022-11-18T08:17:37.016Z,7.10
2022-11-18T08:21:40.117Z,7.10
2022-11-18T08:25:42.808Z,7.20
2022-11-18T08:29:48.609Z,7.30
2022-11-18T08:33:50.596Z,7.40
2022-11-18T08:37:51.943Z,7.50
2022-11-18T08:41:54.038Z,7.40
2022-11-18T08:45:59.952Z,7.40
2022-11-18T08:50:02.293Z,7.40
2022-11-18T08:54:02.595Z,7.40
2022-11-18T08:58:02.650Z,7.40
2022-11-18T09:02:05.378Z,7.40
2022-11-18T09:06:10.325Z,7.50
2022-11-18T09:10:12.086Z,7.50
2022-11-18T09:18:38.984Z,7.50
2022-11-18T09:22:41.925Z,7.60
2022-11-18T09:26:43.312Z,7.60
2022-11-18T09:30:44.960Z,7.60
2022-11-18T09:34:49.206Z,7.60
2022-11-18T09:38:53.507Z,7.50
2022-11-18T09:43:12.604Z,7.50
2022-11-18T09:47:30.450Z,7.50
2022-11-18T09:51:43.312Z,7.50
2022-11-18T09:55:46.747Z,7.50
2022-11-18T09:59:48.475Z,7.60
2022-11-18T10:03:50.524Z,7.60
2022-11-18T10:08:15.237Z,7.60
2022-11-18T10:12:38.045Z,7.70
2022-11-18T10:16:57.701Z,7.70
2022-11-18T10:21:15.778Z,7.80
2022-11-18T10:25:22.587Z,7.90
2022-11-18T10:29:26.052Z,7.90
2022-11-18T10:33:32.781Z,7.80
2022-11-18T10:38:07.334Z,7.80
2022-11-18T10:42:06.301Z,7.80
2022-11-18T10:46:22.660Z,7.70
2022-11-18T10:50:39.657Z,7.60
2022-11-18T10:54:42.619Z,7.60
2022-11-18T10:58:52.979Z,7.60
2022-11-18T11:03:01.249Z,7.70
2022-11-18T11:07:20.829Z,7.50
2022-11-18T11:11:31.479Z,7.60
2022-11-18T11:15:44.219Z,7.70
2022-11-18T11:20:02.412Z,7.70
2022-11-18T11:24:02.684Z,7.70
2022-11-18T11:28:15.588Z,7.60
2022-11-18T11:32:32.562Z,7.70
2022-11-18T11:36:50.272Z,7.60
2022-11-18T11:41:08.003Z,7.60
2022-11-18T11:45:22.527Z,7.50
2022-11-18T11:49:46.673Z,7.50
2022-11-18T11:54:20.191Z,7.50
2022-11-18T11:58:44.304Z,7.50
2022-11-18T12:03:16.124Z,7.40
2022-11-18T12:07:24.705Z,7.40
2022-11-18T12:11:47.729Z,7.50
2022-11-18T12:16:26.331Z,7.50
2022-11-18T12:20:49.273Z,7.50
2022-11-18T12:24:53.748Z,7.50
2022-11-18T12:28:54.697Z,7.40
2022-11-18T12:33:01.181Z,7.50
2022-11-18T12:38:02.330Z,7.40
2022-11-18T12:42:45.912Z,7.40
2022-11-18T12:46:58.978Z,7.40
2022-11-18T12:51:00.929Z,7.30
2022-11-18T12:55:05.220Z,7.40
2022-11-18T12:59:16.890Z,7.40
2022-11-18T13:03:28.946Z,7.40
2022-11-18T13:07:47.034Z,7.40
2022-11-18T13:11:56.306Z,7.40
2022-11-18T13:16:20.921Z,7.40
2022-11-18T13:20:33.095Z,7.40
2022-11-18T13:24:46.709Z,7.40
2022-11-18T13:29:06.364Z,7.40
2022-11-18T13:33:18.098Z,7.40
2022-11-18T13:37:26.638Z,7.40
2022-11-18T13:41:33.289Z,7.50
2022-11-18T13:45:39.122Z,7.50
2022-11-18T13:50:15.474Z,7.50
2022-11-18T13:54:27.194Z,7.50
2022-11-18T13:59:15.628Z,7.40
2022-11-18T14:03:08.223Z,7.30
2022-11-18T14:07:36.159Z,7.30
2022-11-18T14:11:43.376Z,7.40
2022-11-18T14:15:47.164Z,7.30
2022-11-18T14:19:50.245Z,7.30
2022-11-18T14:23:53.847Z,7.30
2022-11-18T14:27:57.541Z,7.30
2022-11-18T14:32:18.812Z,7.40
2022-11-18T14:36:23.440Z,7.30
2022-11-18T14:40:28.383Z,7.40
2022-11-18T14:45:01.398Z,7.40
2022-11-18T14:49:23.758Z,7.40
2022-11-18T14:53:27.922Z,7.30
2022-11-18T14:57:32.931Z,7.30
2022-11-18T15:01:39.159Z,7.30
2022-11-18T15:05:40.732Z,7.30
2022-11-18T15:09:42.308Z,7.20
2022-11-18T15:13:46.041Z,7.20
2022-11-18T15:17:48.505Z,7.20
2022-11-18T15:21:52.799Z,7.20
2022-11-18T15:25:55.577Z,7.10
2022-11-18T15:30:01.677Z,7.10
2022-11-18T15:34:06.753Z,7.10
2022-11-18T15:38:20.661Z,7.00
2022-11-18T15:42:23.464Z,6.90
2022-11-18T15:46:30.110Z,6.90
2022-11-18T15:50:30.357Z,6.80
2022-11-18T15:54:30.520Z,6.70
2022-11-18T15:58:35.732Z,6.70
2022-11-18T16:02:39.100Z,6.70
2022-11-18T16:06:40.117Z,6.60
2022-11-18T16:10:52.685Z,6.60
2022-11-18T16:15:12.819Z,6.60
2022-11-18T16:19:18.695Z,6.60
2022-11-18T16:23:18.870Z,6.60
2022-11-18T16:27:21.304Z,6.60
2022-11-18T16:31:34.382Z,6.60
2022-11-18T16:35:37.053Z,6.60
2022-11-18T16:39:37.191Z,6.60
2022-11-18T16:43:37.395Z,6.40
2022-11-18T16:47:38.525Z,6.40
2022-11-18T16:51:43.974Z,6.30
2022-11-18T16:55:44.110Z,6.30
2022-11-18T16:59:44.350Z,6.20
2022-11-18T17:03:45.355Z,6.20
2022-11-18T17:07:48.194Z,6.10
2022-11-18T17:11:48.449Z,6.10
2022-11-18T17:15:48.761Z,6.00
2022-11-18T17:19:48.877Z,6.00
2022-11-18T17:23:52.606Z,6.00
2022-11-18T17:27:52.750Z,6.00
2022-11-18T17:31:53.894Z,6.10
2022-11-18T17:36:03.301Z,6.10
2022-11-18T17:40:06.261Z,6.10
2022-11-18T17:44:09.164Z,6.10
2022-11-18T17:48:09.625Z,6.00
2022-11-18T17:52:09.917Z,6.00
2022-11-18T17:56:13.219Z,6.00
2022-11-18T18:00:16.126Z,6.00
2022-11-18T18:04:20.641Z,6.00
2022-11-18T18:08:21.118Z,6.00
2022-11-18T18:12:36.404Z,6.00
2022-11-18T18:16:36.958Z,6.00
2022-11-18T18:20:39.226Z,6.00
2022-11-18T18:24:39.298Z,6.10
2022-11-18T18:28:42.196Z,6.00
2022-11-18T18:32:42.381Z,6.00
2022-11-18T18:36:42.568Z,6.00
2022-11-18T18:40:43.333Z,6.00
2022-11-18T18:44:58.886Z,6.00
2022-11-18T18:49:02.368Z,5.90
2022-11-18T18:53:02.490Z,5.90
2022-11-18T18:57:02.607Z,5.90
2022-11-18T19:01:12.803Z,5.90
2022-11-18T19:05:13.210Z,5.80
2022-11-18T19:09:13.415Z,5.70
2022-11-18T19:13:13.534Z,5.70
2022-11-18T19:32:32.492Z,5.00
2022-11-18T19:42:00.901Z,4.60
2022-11-18T19:46:22.820Z,4.50
2022-11-18T19:50:44.752Z,4.40
2022-11-18T19:54:56.068Z,4.30
2022-11-18T20:04:14.783Z,4.20
2022-11-18T20:19:29.329Z,3.90
2022-11-18T20:23:52.432Z,3.80
2022-11-18T20:28:04.945Z,3.70
2022-11-18T20:32:20.366Z,3.60
2022-11-18T20:37:02.141Z,3.50
2022-11-18T20:41:26.216Z,3.30
2022-11-18T20:45:40.500Z,3.10
2022-11-18T20:49:46.831Z,3.10
2022-11-18T20:53:57.637Z,3.00
2022-11-18T20:58:01.225Z,2.90
2022-11-18T21:02:17.728Z,2.90
2022-11-18T21:06:18.288Z,2.80
2022-11-18T21:10:21.074Z,2.70
2022-11-18T21:14:24.812Z,2.60
2022-11-18T21:18:25.577Z,2.60
2022-11-18T21:22:28.585Z,2.60
2022-11-18T21:26:33.812Z,2.50
2022-11-18T21:30:33.964Z,2.50
2022-11-18T21:34:34.083Z,2.40
2022-11-18T21:38:34.208Z,2.30
2022-11-18T21:42:37.137Z,2.20
2022-11-18T21:46:38.970Z,2.20
2022-11-18T21:50:40.997Z,2.00
2022-11-18T21:54:41.102Z,2.00
2022-11-18T21:58:44.856Z,1.90
2022-11-18T22:02:44.915Z,1.90
2022-11-18T22:06:45.019Z,1.80
2022-11-18T22:10:48.546Z,1.80
2022-11-18T22:14:53.168Z,1.80
2022-11-18T22:19:03.586Z,1.80
2022-11-18T22:23:06.943Z,1.80
2022-11-18T22:27:11.318Z,1.80
2022-11-18T22:31:20.143Z,1.90
2022-11-18T22:35:20.471Z,1.90
2022-11-18T22:39:21.167Z,1.90
2022-11-18T22:43:21.806Z,1.90
2022-11-18T22:47:24.502Z,1.90
2022-11-18T22:51:24.637Z,1.90
2022-11-18T22:55:24.724Z,1.90
2022-11-18T22:59:25.198Z,1.90
2022-11-18T23:03:28.040Z,1.90
2022-11-18T23:07:28.570Z,1.90
2022-11-18T23:11:41.395Z,1.90
2022-11-18T23:15:41.782Z,1.90
2022-11-18T23:19:46.217Z,2.00
2022-11-18T23:23:47.238Z,1.90
2022-11-18T23:28:15.665Z,1.90
2022-11-18T23:32:26.304Z,1.90
2022-11-18T23:45:53.217Z,1.90
2022-11-18T23:49:53.317Z,1.90
2022-11-18T23:53:59.801Z,1.90
2022-11-18T23:57:59.980Z,1.90
